createdAt,value
2018-06-29T00:01:55.763Z,65.02
2018-06-29T00:04:25.149Z,66.00
2018-06-29T00:06:54.468Z,65.43
2018-06-29T00:09:23.868Z,66.10
2018-06-29T00:11:53.188Z,65.42
2018-06-29T00:14:22.493Z,65.47
2018-06-29T00:16:51.825Z,66.22
2018-06-29T00:19:21.257Z,65.93
2018-06-29T00:21:50.579Z,66.38
2018-06-29T00:24:20.180Z,65.69
2018-06-29T00:26:49.789Z,65.68
2018-06-29T00:29:19.281Z,66.03
2018-06-29T00:31:48.623Z,66.60
2018-06-29T00:34:17.976Z,66.63
2018-06-29T00:36:47.453Z,65.62
2018-06-29T00:39:16.780Z,66.87
2018-06-29T00:41:46.103Z,66.09
2018-06-29T00:44:15.452Z,65.54
2018-06-29T00:46:44.520Z,65.11
2018-06-29T00:49:13.857Z,65.34
2018-06-29T00:51:43.199Z,65.02
2018-06-29T00:54:12.507Z,65.32
2018-06-29T00:56:41.848Z,65.63
2018-06-29T00:59:11.289Z,65.72
2018-06-29T01:01:40.604Z,66.28
2018-06-29T01:04:09.978Z,65.35
2018-06-29T01:06:39.347Z,64.72
2018-06-29T01:09:12.073Z,64.67
2018-06-29T01:11:41.431Z,65.61
2018-06-29T01:14:10.751Z,65.36
2018-06-29T01:16:40.074Z,65.48
2018-06-29T01:19:09.407Z,65.35
2018-06-29T01:21:38.743Z,65.16
2018-06-29T01:24:08.175Z,66.04
2018-06-29T01:26:37.620Z,65.47
2018-06-29T01:29:06.981Z,65.34
2018-06-29T01:31:36.326Z,65.85
2018-06-29T01:34:05.660Z,66.21
2018-06-29T01:36:34.978Z,65.50
2018-06-29T01:39:05.996Z,65.25
2018-06-29T01:41:35.323Z,67.49
2018-06-29T01:44:04.727Z,67.63
2018-06-29T01:46:34.072Z,68.54
2018-06-29T01:49:03.443Z,68.68
2018-06-29T01:51:32.784Z,69.78
2018-06-29T01:54:02.120Z,68.98
2018-06-29T01:56:31.447Z,68.24
2018-06-29T01:59:00.801Z,68.00
2018-06-29T02:01:30.108Z,68.12
2018-06-29T02:03:59.473Z,68.53
2018-06-29T02:06:28.817Z,67.92
2018-06-29T02:08:58.150Z,67.06
2018-06-29T02:11:27.500Z,67.43
2018-06-29T02:13:56.812Z,66.65
2018-06-29T02:16:26.180Z,66.59
2018-06-29T02:18:55.523Z,66.85
2018-06-29T02:21:24.904Z,67.52
2018-06-29T02:23:54.207Z,67.50
2018-06-29T02:26:23.562Z,66.65
2018-06-29T02:28:54.325Z,67.69
2018-06-29T02:31:23.656Z,66.53
2018-06-29T02:33:52.969Z,66.50
2018-06-29T02:36:22.307Z,66.38
2018-06-29T02:38:51.645Z,66.86
2018-06-29T02:41:20.973Z,66.38
2018-06-29T02:43:50.320Z,66.06
2018-06-29T02:46:19.681Z,66.15
2018-06-29T02:48:49.015Z,65.83
2018-06-29T02:51:18.357Z,66.95
2018-06-29T02:53:47.696Z,67.45
2018-06-29T02:56:17.039Z,67.75
2018-06-29T02:58:46.347Z,67.50
2018-06-29T03:01:15.725Z,67.47
2018-06-29T03:03:45.161Z,66.99
2018-06-29T03:06:14.592Z,67.14
2018-06-29T03:08:43.955Z,66.52
2018-06-29T03:11:13.285Z,66.81
2018-06-29T03:13:42.659Z,66.52
2018-06-29T03:16:12.092Z,65.41
2018-06-29T03:18:41.456Z,64.86
2018-06-29T03:21:11.779Z,65.58
2018-06-29T03:23:41.261Z,65.83
2018-06-29T03:26:10.665Z,64.68
2018-06-29T03:28:40.003Z,64.93
2018-06-29T03:31:09.369Z,64.82
2018-06-29T03:33:38.722Z,64.35
2018-06-29T03:36:08.049Z,64.27
2018-06-29T03:38:37.390Z,63.88
2018-06-29T03:41:07.004Z,65.15
2018-06-29T03:43:36.369Z,64.60
2018-06-29T03:46:05.777Z,64.54
2018-06-29T03:48:35.094Z,63.58
2018-06-29T03:51:04.436Z,63.02
2018-06-29T03:53:33.786Z,63.21
2018-06-29T03:56:03.159Z,64.22
2018-06-29T03:58:32.503Z,63.62
2018-06-29T04:01:01.836Z,63.24
2018-06-29T04:03:31.160Z,62.53
2018-06-29T04:06:00.477Z,63.07
2018-06-29T04:08:29.888Z,63.17
2018-06-29T04:10:59.237Z,63.44
2018-06-29T04:13:28.569Z,63.49
2018-06-29T04:15:57.623Z,63.17
2018-06-29T04:18:26.931Z,62.38
2018-06-29T04:20:56.264Z,61.83
2018-06-29T04:23:25.682Z,62.14
2018-06-29T04:25:55.006Z,63.02
2018-06-29T04:28:24.327Z,63.50
2018-06-29T04:30:53.667Z,63.40
2018-06-29T04:33:23.065Z,64.02
2018-06-29T04:35:52.388Z,64.14
2018-06-29T04:38:21.700Z,62.98
2018-06-29T04:40:51.039Z,63.70
2018-06-29T04:43:20.384Z,63.55
2018-06-29T04:45:49.719Z,64.02
2018-06-29T04:48:19.020Z,63.86
2018-06-29T04:50:48.344Z,62.66
2018-06-29T04:53:17.700Z,62.45
2018-06-29T04:55:47.008Z,64.25
2018-06-29T04:58:16.333Z,65.32
2018-06-29T05:00:45.660Z,63.98
2018-06-29T05:03:14.999Z,63.67
2018-06-29T05:05:44.301Z,63.20
2018-06-29T05:08:13.636Z,62.85
2018-06-29T05:10:42.976Z,62.95
2018-06-29T05:13:12.347Z,63.34
2018-06-29T05:15:41.724Z,63.48
2018-06-29T05:18:11.066Z,63.97
2018-06-29T05:20:40.400Z,63.45
2018-06-29T05:23:09.711Z,63.62
2018-06-29T05:25:39.051Z,63.43
2018-06-29T05:28:08.359Z,61.93
2018-06-29T05:30:37.689Z,62.26
2018-06-29T05:33:07.043Z,62.08
2018-06-29T05:35:36.384Z,61.76
2018-06-29T05:38:05.769Z,60.48
2018-06-29T05:40:35.108Z,58.95
2018-06-29T05:43:04.431Z,59.55
2018-06-29T05:45:33.781Z,58.96
2018-06-29T05:48:03.117Z,58.35
2018-06-29T05:50:32.504Z,58.82
2018-06-29T05:53:01.868Z,58.04
2018-06-29T05:55:31.221Z,58.62
2018-06-29T05:58:00.584Z,58.91
2018-06-29T06:00:29.916Z,57.87
2018-06-29T06:02:59.257Z,58.15
2018-06-29T06:05:28.581Z,58.33
2018-06-29T06:07:57.897Z,57.71
2018-06-29T06:10:27.349Z,56.73
2018-06-29T06:12:56.652Z,57.70
2018-06-29T06:15:25.989Z,56.74
2018-06-29T06:17:55.342Z,56.54
2018-06-29T06:20:25.483Z,57.60
2018-06-29T06:22:54.812Z,56.67
2018-06-29T06:25:24.137Z,57.59
2018-06-29T06:27:53.508Z,56.22
2018-06-29T06:30:22.821Z,57.44
2018-06-29T06:32:52.161Z,56.45
2018-06-29T06:35:21.552Z,55.76
2018-06-29T06:37:50.881Z,56.06
2018-06-29T06:40:20.269Z,56.99
2018-06-29T06:42:49.599Z,56.40
2018-06-29T06:45:18.931Z,56.87
2018-06-29T06:47:48.247Z,55.63
2018-06-29T06:50:17.568Z,57.51
2018-06-29T06:52:46.908Z,55.46
2018-06-29T06:55:16.212Z,54.62
2018-06-29T06:57:45.532Z,56.09
2018-06-29T07:00:14.902Z,54.86
2018-06-29T07:02:44.233Z,54.34
2018-06-29T07:05:13.569Z,55.01
2018-06-29T07:07:42.896Z,55.03
2018-06-29T07:10:12.720Z,55.58
2018-06-29T07:12:42.071Z,55.14
2018-06-29T07:15:11.428Z,54.59
2018-06-29T07:17:40.780Z,55.07
2018-06-29T07:20:10.716Z,54.89
2018-06-29T07:22:40.061Z,55.19
2018-06-29T07:25:09.407Z,54.77
2018-06-29T07:27:38.853Z,54.17
2018-06-29T07:30:08.990Z,54.41
2018-06-29T07:32:38.296Z,55.38
2018-06-29T07:35:07.780Z,55.81
2018-06-29T07:37:37.285Z,55.15
2018-06-29T07:40:06.974Z,53.97
2018-06-29T07:42:36.489Z,53.85
2018-06-29T07:45:06.278Z,53.60
2018-06-29T07:47:35.383Z,54.14
2018-06-29T07:50:05.207Z,54.47
2018-06-29T07:52:34.532Z,53.95
2018-06-29T07:55:04.223Z,53.57
2018-06-29T07:57:33.567Z,52.61
2018-06-29T08:00:02.900Z,53.20
2018-06-29T08:02:35.130Z,53.91
2018-06-29T08:05:04.735Z,54.19
2018-06-29T08:07:34.046Z,54.83
2018-06-29T08:10:03.425Z,53.65
2018-06-29T08:12:32.818Z,51.26
2018-06-29T08:15:02.148Z,51.83
2018-06-29T08:17:31.471Z,53.04
2018-06-29T08:20:00.811Z,51.36
2018-06-29T08:22:30.139Z,52.10
2018-06-29T08:25:07.980Z,51.07
2018-06-29T08:27:37.400Z,51.61
2018-06-29T08:30:07.948Z,50.45
2018-06-29T08:32:37.650Z,52.32
2018-06-29T08:35:07.269Z,50.26
2018-06-29T08:37:37.187Z,50.76
2018-06-29T08:40:07.731Z,49.00
2018-06-29T08:42:37.364Z,49.64
2018-06-29T08:45:07.879Z,50.02
2018-06-29T08:47:37.257Z,48.72
2018-06-29T08:50:06.672Z,49.90
2018-06-29T08:52:39.492Z,48.75
2018-06-29T08:55:08.898Z,48.86
2018-06-29T08:57:38.224Z,47.87
2018-06-29T09:00:08.661Z,47.60
2018-06-29T09:02:38.005Z,48.19
2018-06-29T09:05:07.877Z,48.78
2018-06-29T09:07:37.193Z,48.98
2018-06-29T09:10:06.776Z,48.17
2018-06-29T09:12:36.128Z,46.91
2018-06-29T09:15:05.456Z,47.03
2018-06-29T09:17:34.780Z,48.45
2018-06-29T09:20:04.315Z,47.70
2018-06-29T09:22:33.659Z,47.82
2018-06-29T09:25:03.104Z,47.86
2018-06-29T09:27:32.436Z,46.92
2018-06-29T09:30:01.889Z,47.24
2018-06-29T09:32:31.161Z,46.71
2018-06-29T09:35:00.456Z,46.96
2018-06-29T09:37:29.783Z,44.97
2018-06-29T09:39:59.106Z,43.00
2018-06-29T09:42:28.478Z,43.26
2018-06-29T09:44:57.995Z,44.25
2018-06-29T09:47:27.345Z,44.49
2018-06-29T09:49:56.672Z,43.84
2018-06-29T09:52:25.985Z,44.31
2018-06-29T09:54:55.320Z,42.49
2018-06-29T09:57:24.637Z,45.00
2018-06-29T09:59:53.968Z,43.87
2018-06-29T10:02:23.321Z,43.35
2018-06-29T10:04:52.642Z,43.52
2018-06-29T10:07:22.135Z,44.10
2018-06-29T10:09:51.456Z,43.64
2018-06-29T10:12:20.836Z,43.26
2018-06-29T10:14:50.183Z,42.96
2018-06-29T10:17:19.513Z,42.70
2018-06-29T10:19:48.889Z,43.98
2018-06-29T10:22:18.332Z,42.98
2018-06-29T10:24:47.604Z,43.75
2018-06-29T10:27:16.976Z,44.50
2018-06-29T10:29:46.291Z,43.52
2018-06-29T10:32:15.648Z,42.29
2018-06-29T10:34:44.968Z,42.48
2018-06-29T10:37:15.536Z,42.90
2018-06-29T10:39:44.855Z,42.88
2018-06-29T10:42:15.436Z,44.03
2018-06-29T10:44:44.877Z,41.69
2018-06-29T10:47:14.200Z,43.93
2018-06-29T10:49:43.570Z,42.42
2018-06-29T10:52:12.892Z,41.98
2018-06-29T10:54:42.216Z,40.94
2018-06-29T10:57:11.536Z,40.69
2018-06-29T10:59:40.844Z,41.56
2018-06-29T11:02:10.184Z,39.70
2018-06-29T11:04:39.520Z,41.85
2018-06-29T11:07:08.912Z,41.58
2018-06-29T11:09:38.237Z,41.60
2018-06-29T11:12:07.625Z,42.53
2018-06-29T11:14:36.947Z,41.20
2018-06-29T11:17:06.574Z,40.79
2018-06-29T11:19:35.933Z,39.60
2018-06-29T11:22:05.291Z,41.08
2018-06-29T11:24:34.777Z,41.50
2018-06-29T11:27:04.161Z,41.15
2018-06-29T11:29:33.479Z,41.40
2018-06-29T11:32:02.844Z,40.45
2018-06-29T11:34:32.173Z,39.92
2018-06-29T11:37:01.504Z,38.52
2018-06-29T11:39:30.836Z,38.88
2018-06-29T11:42:00.161Z,39.41
2018-06-29T11:44:29.529Z,37.62
2018-06-29T11:46:58.863Z,38.95
2018-06-29T11:49:28.195Z,37.49
2018-06-29T11:51:57.525Z,38.82
2018-06-29T11:54:26.871Z,39.19
2018-06-29T11:56:56.212Z,38.18
2018-06-29T11:59:25.559Z,40.30
2018-06-29T12:01:54.918Z,39.89
2018-06-29T12:04:24.257Z,40.38
2018-06-29T12:06:53.725Z,37.15
2018-06-29T12:09:23.009Z,38.50
2018-06-29T12:11:52.323Z,38.81
2018-06-29T12:14:21.653Z,37.66
2018-06-29T12:16:51.136Z,38.35
2018-06-29T12:19:20.600Z,39.32
2018-06-29T12:21:49.966Z,41.23
2018-06-29T12:24:19.298Z,38.43
2018-06-29T12:26:48.788Z,38.13
2018-06-29T12:29:18.115Z,37.94
2018-06-29T12:31:47.433Z,38.19
2018-06-29T12:34:16.769Z,37.53
2018-06-29T12:36:46.098Z,37.12
2018-06-29T12:39:15.415Z,38.24
2018-06-29T12:41:44.759Z,36.96
2018-06-29T12:44:14.184Z,36.56
2018-06-29T12:46:43.520Z,38.03
2018-06-29T12:49:12.868Z,36.69
2018-06-29T12:51:41.962Z,36.48
2018-06-29T12:54:11.263Z,35.38
2018-06-29T12:56:40.596Z,36.88
2018-06-29T12:59:09.916Z,36.24
2018-06-29T13:01:39.327Z,36.71
2018-06-29T13:04:08.755Z,37.16
2018-06-29T13:06:38.140Z,37.32
2018-06-29T13:09:10.548Z,36.83
2018-06-29T13:11:39.862Z,36.26
2018-06-29T13:14:09.248Z,36.62
2018-06-29T13:16:38.520Z,35.66
2018-06-29T13:19:07.887Z,35.81
2018-06-29T13:21:37.225Z,36.95
2018-06-29T13:24:06.580Z,35.71
2018-06-29T13:26:35.916Z,35.94
2018-06-29T13:29:05.236Z,36.31
2018-06-29T13:31:34.649Z,34.37
2018-06-29T13:34:03.975Z,35.27
2018-06-29T13:36:34.283Z,35.88
2018-06-29T13:39:03.769Z,36.62
2018-06-29T13:41:33.136Z,36.64
2018-06-29T13:44:02.515Z,34.56
2018-06-29T13:46:31.884Z,33.92
2018-06-29T13:49:01.220Z,34.47
2018-06-29T13:51:30.540Z,35.13
2018-06-29T13:53:59.848Z,34.90
2018-06-29T13:56:29.206Z,33.92
2018-06-29T13:58:58.828Z,33.79
2018-06-29T14:01:28.204Z,34.91
2018-06-29T14:03:57.644Z,33.38
2018-06-29T14:06:26.970Z,32.64
2018-06-29T14:08:56.402Z,30.04
2018-06-29T14:11:25.744Z,29.93
2018-06-29T14:13:55.077Z,27.94
2018-06-29T14:16:24.432Z,28.10
2018-06-29T14:18:53.807Z,27.76
2018-06-29T14:21:23.157Z,26.73
2018-06-29T14:23:52.488Z,27.17
2018-06-29T14:26:21.857Z,27.38
2018-06-29T14:28:51.233Z,27.03
2018-06-29T14:31:20.515Z,26.49
2018-06-29T14:33:49.907Z,27.57
2018-06-29T14:36:19.267Z,26.28
2018-06-29T14:38:48.669Z,26.92
2018-06-29T14:41:18.027Z,26.97
2018-06-29T14:43:47.395Z,27.04
2018-06-29T14:46:16.769Z,25.32
2018-06-29T14:48:46.060Z,26.24
2018-06-29T14:51:15.399Z,26.22
2018-06-29T14:53:44.741Z,25.20
2018-06-29T14:56:13.783Z,24.89
2018-06-29T14:58:43.132Z,25.14
2018-06-29T15:01:12.440Z,24.17
2018-06-29T15:03:41.800Z,23.77
2018-06-29T15:06:11.128Z,24.51
2018-06-29T15:08:40.525Z,24.87
2018-06-29T15:11:09.860Z,24.45
2018-06-29T15:13:39.172Z,24.07
2018-06-29T15:16:08.581Z,24.67
2018-06-29T15:18:37.900Z,24.76
2018-06-29T15:21:07.366Z,25.67
2018-06-29T15:23:36.791Z,24.34
2018-06-29T15:26:06.686Z,24.82
2018-06-29T15:28:36.037Z,24.91
2018-06-29T15:31:05.413Z,25.23
2018-06-29T15:33:34.713Z,24.71
2018-06-29T15:36:04.081Z,24.16
2018-06-29T15:38:33.409Z,25.12
2018-06-29T15:41:02.723Z,24.71
2018-06-29T15:43:32.045Z,24.81
2018-06-29T15:46:01.425Z,24.29
2018-06-29T15:48:30.769Z,24.73
2018-06-29T15:51:00.158Z,23.72
2018-06-29T15:53:29.503Z,23.21
2018-06-29T15:55:58.861Z,23.87
2018-06-29T15:58:28.320Z,23.94
2018-06-29T16:00:57.729Z,23.78
2018-06-29T16:03:27.052Z,23.59
2018-06-29T16:05:56.376Z,23.76
2018-06-29T16:08:25.781Z,23.70
2018-06-29T16:10:55.148Z,23.04
2018-06-29T16:13:24.543Z,23.48
2018-06-29T16:15:53.869Z,23.71
2018-06-29T16:18:23.228Z,23.23
2018-06-29T16:20:52.572Z,23.84
2018-06-29T16:23:22.052Z,23.85
2018-06-29T16:25:51.392Z,24.15
2018-06-29T16:28:20.716Z,24.61
2018-06-29T16:30:50.063Z,23.50
2018-06-29T16:33:19.372Z,23.46
2018-06-29T16:35:48.692Z,24.11
2018-06-29T16:38:18.017Z,24.00
2018-06-29T16:40:47.372Z,24.08
2018-06-29T16:43:16.714Z,24.16
2018-06-29T16:45:46.057Z,24.86
2018-06-29T16:48:15.380Z,24.78
2018-06-29T16:50:44.764Z,24.92
2018-06-29T16:53:14.048Z,23.98
2018-06-29T16:55:43.388Z,25.05
2018-06-29T16:58:12.824Z,23.60
2018-06-29T17:00:42.099Z,23.79
2018-06-29T17:03:11.759Z,23.50
2018-06-29T17:05:41.184Z,23.65
2018-06-29T17:08:11.351Z,23.48
2018-06-29T17:10:40.684Z,23.41
2018-06-29T17:13:10.020Z,23.88
2018-06-29T17:15:39.415Z,23.28
2018-06-29T17:18:08.750Z,23.43
2018-06-29T17:20:38.085Z,23.10
2018-06-29T17:23:08.232Z,23.81
2018-06-29T17:25:37.580Z,24.16
2018-06-29T17:28:07.128Z,24.30
2018-06-29T17:30:36.511Z,24.44
2018-06-29T17:33:06.332Z,24.85
2018-06-29T17:35:35.669Z,24.05
2018-06-29T17:38:05.012Z,24.13
2018-06-29T17:40:34.369Z,24.00
2018-06-29T17:43:03.757Z,24.27
2018-06-29T17:45:33.137Z,24.02
2018-06-29T17:48:02.469Z,24.15
2018-06-29T17:50:31.807Z,23.96
2018-06-29T17:53:01.140Z,24.83
2018-06-29T17:55:30.475Z,24.34
2018-06-29T17:57:59.804Z,24.88
2018-06-29T18:00:29.120Z,26.61
2018-06-29T18:02:58.511Z,29.71
2018-06-29T18:05:27.858Z,30.33
2018-06-29T18:07:57.136Z,31.62
2018-06-29T18:10:26.964Z,33.57
2018-06-29T18:12:56.439Z,34.64
2018-06-29T18:15:25.676Z,34.91
2018-06-29T18:17:55.040Z,36.60
2018-06-29T18:20:24.526Z,37.44
2018-06-29T18:22:53.896Z,38.01
2018-06-29T18:25:23.254Z,38.21
2018-06-29T18:27:52.863Z,37.40
2018-06-29T18:30:22.275Z,38.08
2018-06-29T18:32:51.815Z,38.00
2018-06-29T18:35:21.164Z,37.83
2018-06-29T18:37:50.512Z,40.20
2018-06-29T18:40:19.860Z,38.69
2018-06-29T18:42:49.213Z,39.31
2018-06-29T18:45:18.520Z,41.18
2018-06-29T18:47:47.921Z,40.20
2018-06-29T18:50:17.257Z,40.77
2018-06-29T18:52:46.576Z,42.04
2018-06-29T18:55:15.912Z,40.71
2018-06-29T18:57:45.266Z,41.92
2018-06-29T19:00:14.589Z,42.58
2018-06-29T19:02:44.233Z,41.53
2018-06-29T19:05:13.568Z,42.77
2018-06-29T19:07:42.913Z,43.36
2018-06-29T19:10:12.257Z,44.60
2018-06-29T19:12:41.598Z,44.83
2018-06-29T19:15:10.955Z,45.45
2018-06-29T19:17:40.561Z,43.62
2018-06-29T19:20:09.941Z,43.44
2018-06-29T19:22:39.270Z,44.48
2018-06-29T19:25:08.594Z,46.10
2018-06-29T19:27:37.896Z,46.83
2018-06-29T19:30:07.270Z,45.67
2018-06-29T19:32:36.601Z,45.53
2018-06-29T19:35:05.964Z,47.00
2018-06-29T19:37:35.337Z,47.73
2018-06-29T19:40:04.841Z,45.99
2018-06-29T19:42:34.240Z,46.31
2018-06-29T19:45:03.673Z,46.95
2018-06-29T19:47:33.013Z,48.18
2018-06-29T19:50:02.346Z,48.51
2018-06-29T19:52:31.656Z,48.14
2018-06-29T19:55:01.041Z,50.61
2018-06-29T19:57:30.378Z,52.65
2018-06-29T19:59:59.766Z,52.19
2018-06-29T20:02:29.120Z,52.83
2018-06-29T20:04:59.411Z,51.82
2018-06-29T20:07:28.773Z,52.54
2018-06-29T20:09:58.105Z,54.10
2018-06-29T20:12:27.448Z,55.35
2018-06-29T20:14:56.777Z,54.37
2018-06-29T20:17:26.128Z,53.45
2018-06-29T20:19:55.449Z,54.88
2018-06-29T20:22:24.798Z,56.12
2018-06-29T20:24:54.119Z,56.23
2018-06-29T20:27:23.473Z,56.86
2018-06-29T20:29:52.817Z,54.36
2018-06-29T20:32:22.176Z,55.35
2018-06-29T20:34:51.527Z,56.29
2018-06-29T20:37:20.852Z,56.01
2018-06-29T20:39:50.296Z,55.40
2018-06-29T20:42:19.626Z,56.42
2018-06-29T20:44:48.940Z,56.32
2018-06-29T20:47:18.261Z,55.66
2018-06-29T20:49:47.584Z,55.83
2018-06-29T20:52:16.920Z,55.78
2018-06-29T20:54:46.269Z,56.34
2018-06-29T20:57:15.683Z,55.88
2018-06-29T20:59:45.009Z,56.08
2018-06-29T21:02:14.337Z,55.55
2018-06-29T21:04:43.692Z,56.88
2018-06-29T21:07:13.010Z,56.86
2018-06-29T21:09:42.356Z,57.68
2018-06-29T21:12:11.684Z,58.07
2018-06-29T21:14:41.878Z,58.09
2018-06-29T21:17:11.227Z,57.32
2018-06-29T21:19:40.982Z,57.77
2018-06-29T21:22:10.663Z,57.96
2018-06-29T21:24:40.362Z,58.30
2018-06-29T21:27:09.920Z,59.41
2018-06-29T21:29:39.688Z,59.83
2018-06-29T21:32:10.013Z,59.75
2018-06-29T21:34:39.649Z,61.79
2018-06-29T21:37:09.365Z,61.42
2018-06-29T21:39:38.986Z,62.10
2018-06-29T21:42:08.911Z,62.85
2018-06-29T21:44:38.570Z,62.28
2018-06-29T21:47:08.269Z,62.89
2018-06-29T21:49:37.588Z,63.28
2018-06-29T21:52:07.024Z,63.07
2018-06-29T21:54:36.364Z,64.62
2018-06-29T21:57:05.871Z,64.01
2018-06-29T21:59:35.255Z,63.63
2018-06-29T22:02:04.631Z,64.27
2018-06-29T22:04:33.969Z,65.06
2018-06-29T22:07:03.288Z,64.82
2018-06-29T22:09:32.596Z,65.45
2018-06-29T22:12:02.029Z,65.30
2018-06-29T22:14:31.344Z,65.49
2018-06-29T22:17:00.676Z,65.68
2018-06-29T22:19:30.014Z,65.39
2018-06-29T22:21:59.384Z,66.25
2018-06-29T22:24:28.725Z,66.36
2018-06-29T22:26:58.067Z,66.82
2018-06-29T22:29:27.451Z,66.21
2018-06-29T22:31:56.830Z,66.42
2018-06-29T22:34:26.168Z,67.67
2018-06-29T22:36:55.689Z,68.25
2018-06-29T22:39:25.139Z,68.34
2018-06-29T22:41:54.447Z,68.86
2018-06-29T22:44:23.844Z,68.80
2018-06-29T22:46:53.141Z,69.55
2018-06-29T22:49:22.468Z,69.62
2018-06-29T22:51:51.800Z,69.25
2018-06-29T22:54:21.148Z,68.94
2018-06-29T22:56:50.504Z,69.94
2018-06-29T22:59:19.838Z,70.24
2018-06-29T23:01:49.221Z,70.37
2018-06-29T23:04:18.553Z,70.47
2018-06-29T23:06:48.052Z,70.96
2018-06-29T23:09:17.398Z,70.06
2018-06-29T23:11:46.732Z,69.61
2018-06-29T23:14:16.065Z,70.20
2018-06-29T23:16:45.468Z,69.88
2018-06-29T23:19:14.775Z,70.45
2018-06-29T23:21:44.145Z,70.30
2018-06-29T23:24:13.453Z,69.31
2018-06-29T23:26:42.783Z,69.60
2018-06-29T23:29:12.132Z,69.65
2018-06-29T23:31:41.519Z,69.38
2018-06-29T23:34:10.862Z,69.90
2018-06-29T23:36:40.184Z,70.41
2018-06-29T23:39:11.451Z,69.17
2018-06-29T23:41:40.800Z,69.18
2018-06-29T23:44:11.363Z,69.72
2018-06-29T23:46:40.701Z,69.25
2018-06-29T23:49:10.040Z,69.99
2018-06-29T23:51:39.376Z,69.69
2018-06-29T23:54:08.808Z,70.74
2018-06-29T23:56:38.180Z,70.63
2018-06-29T23:59:07.572Z,70.18
